sensor_id;sensor_type;location;lat;lon;timestamp;temperature;humidity
11744;DHT22;5929;51.906;7.674;2023-10-09T00:02:06;11.80;99.90
11744;DHT22;5929;51.906;7.674;2023-10-09T00:04:35;11.70;99.90
11744;DHT22;5929;51.906;7.674;2023-10-09T00:07:03;11.70;99.90
11744;DHT22;5929;51.906;7.674;2023-10-09T00:09:34;11.80;99.90
11744;DHT22;5929;51.906;7.674;2023-10-09T00:12:13;11.80;99.90
11744;DHT22;5929;51.906;7.674;2023-10-09T00:14:43;11.90;99.90
11744;DHT22;5929;51.906;7.674;2023-10-09T00:17:16;11.90;99.90
11744;DHT22;5929;51.906;7.674;2023-10-09T00:19:45;11.90;99.90
11744;DHT22;5929;51.906;7.674;2023-10-09T00:22:15;11.90;99.90
11744;DHT22;5929;51.906;7.674;2023-10-09T00:24:57;11.90;99.90
11744;DHT22;5929;51.906;7.674;2023-10-09T00:27:47;12.00;99.90
11744;DHT22;5929;51.906;7.674;2023-10-09T00:30:17;12.00;99.90
11744;DHT22;5929;51.906;7.674;2023-10-09T00:32:52;12.00;99.90
11744;DHT22;5929;51.906;7.674;2023-10-09T00:35:25;12.00;99.90
11744;DHT22;5929;51.906;7.674;2023-10-09T00:38:09;12.00;99.90
11744;DHT22;5929;51.906;7.674;2023-10-09T00:40:41;12.00;99.90
11744;DHT22;5929;51.906;7.674;2023-10-09T00:43:12;12.00;99.90
11744;DHT22;5929;51.906;7.674;2023-10-09T00:45:41;12.10;99.90
11744;DHT22;5929;51.906;7.674;2023-10-09T00:48:10;12.20;99.90
11744;DHT22;5929;51.906;7.674;2023-10-09T00:50:40;12.20;99.90
11744;DHT22;5929;51.906;7.674;2023-10-09T00:53:13;12.20;99.90
11744;DHT22;5929;51.906;7.674;2023-10-09T00:55:44;12.30;99.90
11744;DHT22;5929;51.906;7.674;2023-10-09T00:58:21;12.30;99.90
11744;DHT22;5929;51.906;7.674;2023-10-09T01:00:57;12.40;99.90
11744;DHT22;5929;51.906;7.674;2023-10-09T01:03:25;12.40;99.90
11744;DHT22;5929;51.906;7.674;2023-10-09T01:05:57;12.50;99.90
11744;DHT22;5929;51.906;7.674;2023-10-09T01:08:24;12.50;99.90
11744;DHT22;5929;51.906;7.674;2023-10-09T01:10:55;12.50;99.90
11744;DHT22;5929;51.906;7.674;2023-10-09T01:13:24;12.70;99.90
11744;DHT22;5929;51.906;7.674;2023-10-09T01:16:06;12.90;99.90
11744;DHT22;5929;51.906;7.674;2023-10-09T01:18:38;13.00;99.90
11744;DHT22;5929;51.906;7.674;2023-10-09T01:21:06;13.20;99.90
11744;DHT22;5929;51.906;7.674;2023-10-09T01:23:34;13.30;99.90
11744;DHT22;5929;51.906;7.674;2023-10-09T01:26:08;13.40;99.90
11744;DHT22;5929;51.906;7.674;2023-10-09T01:28:36;13.40;99.90
11744;DHT22;5929;51.906;7.674;2023-10-09T01:31:06;13.50;99.90
11744;DHT22;5929;51.906;7.674;2023-10-09T01:33:34;13.50;99.90
11744;DHT22;5929;51.906;7.674;2023-10-09T01:36:02;13.60;99.90
11744;DHT22;5929;51.906;7.674;2023-10-09T01:38:34;13.60;99.90
11744;DHT22;5929;51.906;7.674;2023-10-09T01:41:10;13.60;99.90
11744;DHT22;5929;51.906;7.674;2023-10-09T01:43:47;13.60;99.90
11744;DHT22;5929;51.906;7.674;2023-10-09T01:46:17;13.70;99.90
11744;DHT22;5929;51.906;7.674;2023-10-09T01:48:45;13.70;99.90
11744;DHT22;5929;51.906;7.674;2023-10-09T01:51:13;13.70;99.90
11744;DHT22;5929;51.906;7.674;2023-10-09T01:53:44;13.70;99.90
11744;DHT22;5929;51.906;7.674;2023-10-09T01:56:13;13.80;99.90
11744;DHT22;5929;51.906;7.674;2023-10-09T01:58:44;13.80;99.90
11744;DHT22;5929;51.906;7.674;2023-10-09T02:01:13;13.90;99.90
11744;DHT22;5929;51.906;7.674;2023-10-09T02:03:42;13.90;99.90
11744;DHT22;5929;51.906;7.674;2023-10-09T02:06:10;13.90;99.90
11744;DHT22;5929;51.906;7.674;2023-10-09T02:08:53;13.90;99.90
11744;DHT22;5929;51.906;7.674;2023-10-09T02:11:21;13.90;99.90
11744;DHT22;5929;51.906;7.674;2023-10-09T02:14:03;13.90;99.90
11744;DHT22;5929;51.906;7.674;2023-10-09T02:16:41;14.00;99.90
11744;DHT22;5929;51.906;7.674;2023-10-09T02:19:08;13.90;99.90
11744;DHT22;5929;51.906;7.674;2023-10-09T02:21:55;13.90;99.90
11744;DHT22;5929;51.906;7.674;2023-10-09T02:24:25;14.00;99.90
11744;DHT22;5929;51.906;7.674;2023-10-09T02:27:15;14.00;99.90
11744;DHT22;5929;51.906;7.674;2023-10-09T02:30:04;14.00;99.90
11744;DHT22;5929;51.906;7.674;2023-10-09T02:32:43;14.10;99.90
11744;DHT22;5929;51.906;7.674;2023-10-09T02:35:14;14.00;99.90
11744;DHT22;5929;51.906;7.674;2023-10-09T02:37:53;14.10;99.90
11744;DHT22;5929;51.906;7.674;2023-10-09T02:40:22;14.20;99.90
11744;DHT22;5929;51.906;7.674;2023-10-09T02:42:51;14.20;99.90
11744;DHT22;5929;51.906;7.674;2023-10-09T02:45:18;14.20;99.90
11744;DHT22;5929;51.906;7.674;2023-10-09T02:47:45;14.20;99.90
11744;DHT22;5929;51.906;7.674;2023-10-09T02:50:16;14.30;99.90
11744;DHT22;5929;51.906;7.674;2023-10-09T02:52:47;14.30;99.90
11744;DHT22;5929;51.906;7.674;2023-10-09T02:55:23;14.30;99.90
11744;DHT22;5929;51.906;7.674;2023-10-09T02:57:52;14.20;99.90
11744;DHT22;5929;51.906;7.674;2023-10-09T03:00:30;14.20;99.90
11744;DHT22;5929;51.906;7.674;2023-10-09T03:02:58;14.20;99.90
11744;DHT22;5929;51.906;7.674;2023-10-09T03:05:25;14.20;99.90
11744;DHT22;5929;51.906;7.674;2023-10-09T03:07:54;14.20;99.90
11744;DHT22;5929;51.906;7.674;2023-10-09T03:10:23;14.30;99.90
11744;DHT22;5929;51.906;7.674;2023-10-09T03:12:51;14.20;99.90
11744;DHT22;5929;51.906;7.674;2023-10-09T03:15:19;14.30;99.90
11744;DHT22;5929;51.906;7.674;2023-10-09T03:17:46;14.30;99.90
11744;DHT22;5929;51.906;7.674;2023-10-09T03:20:13;14.40;99.90
11744;DHT22;5929;51.906;7.674;2023-10-09T03:22:41;14.50;99.90
11744;DHT22;5929;51.906;7.674;2023-10-09T03:25:08;14.50;99.90
11744;DHT22;5929;51.906;7.674;2023-10-09T03:27:39;14.50;99.90
11744;DHT22;5929;51.906;7.674;2023-10-09T03:30:11;14.60;99.90
11744;DHT22;5929;51.906;7.674;2023-10-09T03:32:43;14.50;99.90
11744;DHT22;5929;51.906;7.674;2023-10-09T03:35:12;14.60;99.90
11744;DHT22;5929;51.906;7.674;2023-10-09T03:37:45;14.60;99.90
11744;DHT22;5929;51.906;7.674;2023-10-09T03:40:12;14.60;99.90
11744;DHT22;5929;51.906;7.674;2023-10-09T03:42:44;14.70;99.90
11744;DHT22;5929;51.906;7.674;2023-10-09T03:45:13;14.70;99.90
11744;DHT22;5929;51.906;7.674;2023-10-09T03:47:51;14.80;99.90
11744;DHT22;5929;51.906;7.674;2023-10-09T03:50:23;14.80;99.90
11744;DHT22;5929;51.906;7.674;2023-10-09T03:52:53;14.80;99.90
11744;DHT22;5929;51.906;7.674;2023-10-09T03:55:21;14.70;99.90
11744;DHT22;5929;51.906;7.674;2023-10-09T03:57:55;14.80;99.90
11744;DHT22;5929;51.906;7.674;2023-10-09T04:00:24;14.70;99.90
11744;DHT22;5929;51.906;7.674;2023-10-09T04:02:54;14.60;99.90
11744;DHT22;5929;51.906;7.674;2023-10-09T04:05:22;14.70;99.90
11744;DHT22;5929;51.906;7.674;2023-10-09T04:07:50;14.60;99.90
11744;DHT22;5929;51.906;7.674;2023-10-09T04:10:19;14.60;99.90
11744;DHT22;5929;51.906;7.674;2023-10-09T04:13:18;14.60;99.90
11744;DHT22;5929;51.906;7.674;2023-10-09T04:15:49;14.50;99.90
11744;DHT22;5929;51.906;7.674;2023-10-09T04:18:18;14.60;99.90
11744;DHT22;5929;51.906;7.674;2023-10-09T04:20:54;14.60;99.90
11744;DHT22;5929;51.906;7.674;2023-10-09T04:23:39;14.60;99.90
11744;DHT22;5929;51.906;7.674;2023-10-09T04:26:20;14.70;99.90
11744;DHT22;5929;51.906;7.674;2023-10-09T04:28:48;14.60;99.90
11744;DHT22;5929;51.906;7.674;2023-10-09T04:31:18;14.80;99.90
11744;DHT22;5929;51.906;7.674;2023-10-09T04:33:46;14.80;99.90
11744;DHT22;5929;51.906;7.674;2023-10-09T04:36:19;14.80;99.90
11744;DHT22;5929;51.906;7.674;2023-10-09T04:38:54;14.80;99.90
11744;DHT22;5929;51.906;7.674;2023-10-09T04:41:41;14.80;99.90
11744;DHT22;5929;51.906;7.674;2023-10-09T04:44:19;14.90;99.90
11744;DHT22;5929;51.906;7.674;2023-10-09T04:46:49;14.80;99.90
11744;DHT22;5929;51.906;7.674;2023-10-09T04:49:30;14.90;99.90
11744;DHT22;5929;51.906;7.674;2023-10-09T04:52:11;14.90;99.90
11744;DHT22;5929;51.906;7.674;2023-10-09T04:54:44;14.90;99.90
11744;DHT22;5929;51.906;7.674;2023-10-09T04:57:30;14.80;99.90
11744;DHT22;5929;51.906;7.674;2023-10-09T05:00:06;14.80;99.90
11744;DHT22;5929;51.906;7.674;2023-10-09T05:02:47;14.90;99.90
11744;DHT22;5929;51.906;7.674;2023-10-09T05:05:20;14.90;99.90
11744;DHT22;5929;51.906;7.674;2023-10-09T05:08:14;15.00;99.90
11744;DHT22;5929;51.906;7.674;2023-10-09T05:10:44;15.10;99.90
11744;DHT22;5929;51.906;7.674;2023-10-09T05:13:32;15.10;99.90
11744;DHT22;5929;51.906;7.674;2023-10-09T05:16:10;15.20;99.90
11744;DHT22;5929;51.906;7.674;2023-10-09T05:18:41;15.20;99.90
11744;DHT22;5929;51.906;7.674;2023-10-09T05:21:10;15.20;99.90
11744;DHT22;5929;51.906;7.674;2023-10-09T05:23:51;15.20;99.90
11744;DHT22;5929;51.906;7.674;2023-10-09T05:26:32;15.20;99.90
11744;DHT22;5929;51.906;7.674;2023-10-09T05:29:15;15.10;99.90
11744;DHT22;5929;51.906;7.674;2023-10-09T05:31:46;15.20;99.90
11744;DHT22;5929;51.906;7.674;2023-10-09T05:34:22;15.10;99.90
11744;DHT22;5929;51.906;7.674;2023-10-09T05:36:48;15.10;99.90
11744;DHT22;5929;51.906;7.674;2023-10-09T05:39:15;15.10;99.90
11744;DHT22;5929;51.906;7.674;2023-10-09T05:41:47;15.10;99.90
11744;DHT22;5929;51.906;7.674;2023-10-09T05:44:18;15.10;99.90
11744;DHT22;5929;51.906;7.674;2023-10-09T05:47:03;15.10;99.90
11744;DHT22;5929;51.906;7.674;2023-10-09T05:49:44;15.00;99.90
11744;DHT22;5929;51.906;7.674;2023-10-09T05:52:27;15.00;99.90
11744;DHT22;5929;51.906;7.674;2023-10-09T05:55:18;14.90;99.90
11744;DHT22;5929;51.906;7.674;2023-10-09T05:58:02;14.90;99.90
11744;DHT22;5929;51.906;7.674;2023-10-09T06:00:47;14.90;99.90
11744;DHT22;5929;51.906;7.674;2023-10-09T06:03:53;14.80;99.90
11744;DHT22;5929;51.906;7.674;2023-10-09T06:06:37;14.70;99.90
11744;DHT22;5929;51.906;7.674;2023-10-09T06:09:11;14.60;99.90
11744;DHT22;5929;51.906;7.674;2023-10-09T06:12:04;14.60;99.90
11744;DHT22;5929;51.906;7.674;2023-10-09T06:14:48;14.60;99.90
11744;DHT22;5929;51.906;7.674;2023-10-09T06:17:44;14.60;99.90
11744;DHT22;5929;51.906;7.674;2023-10-09T06:20:17;14.70;99.90
11744;DHT22;5929;51.906;7.674;2023-10-09T06:23:03;14.70;99.90
11744;DHT22;5929;51.906;7.674;2023-10-09T06:25:43;14.70;99.90
11744;DHT22;5929;51.906;7.674;2023-10-09T06:28:18;14.70;99.90
11744;DHT22;5929;51.906;7.674;2023-10-09T06:30:58;14.70;99.90
11744;DHT22;5929;51.906;7.674;2023-10-09T06:33:46;14.70;99.90
11744;DHT22;5929;51.906;7.674;2023-10-09T06:36:34;14.70;99.90
11744;DHT22;5929;51.906;7.674;2023-10-09T06:39:15;14.70;99.90
11744;DHT22;5929;51.906;7.674;2023-10-09T06:42:00;14.60;99.90
11744;DHT22;5929;51.906;7.674;2023-10-09T06:44:42;14.70;99.90
11744;DHT22;5929;51.906;7.674;2023-10-09T06:47:20;14.70;99.90
11744;DHT22;5929;51.906;7.674;2023-10-09T06:49:49;14.70;99.90
11744;DHT22;5929;51.906;7.674;2023-10-09T06:52:31;14.70;99.90
11744;DHT22;5929;51.906;7.674;2023-10-09T06:55:12;14.60;99.90
11744;DHT22;5929;51.906;7.674;2023-10-09T06:57:45;14.70;99.90
11744;DHT22;5929;51.906;7.674;2023-10-09T07:00:15;14.70;99.90
11744;DHT22;5929;51.906;7.674;2023-10-09T07:02:56;14.70;99.90
11744;DHT22;5929;51.906;7.674;2023-10-09T07:05:23;14.70;99.90
11744;DHT22;5929;51.906;7.674;2023-10-09T07:07:58;14.70;99.90
11744;DHT22;5929;51.906;7.674;2023-10-09T07:10:45;14.80;99.90
11744;DHT22;5929;51.906;7.674;2023-10-09T07:13:27;14.70;99.90
11744;DHT22;5929;51.906;7.674;2023-10-09T07:15:55;14.70;99.90
11744;DHT22;5929;51.906;7.674;2023-10-09T07:18:48;14.70;99.90
11744;DHT22;5929;51.906;7.674;2023-10-09T07:21:20;14.80;99.90
11744;DHT22;5929;51.906;7.674;2023-10-09T07:23:55;14.80;99.90
11744;DHT22;5929;51.906;7.674;2023-10-09T07:26:25;14.80;99.90
11744;DHT22;5929;51.906;7.674;2023-10-09T07:29:03;14.90;99.90
11744;DHT22;5929;51.906;7.674;2023-10-09T07:31:42;14.90;99.90
11744;DHT22;5929;51.906;7.674;2023-10-09T07:34:11;15.00;99.90
11744;DHT22;5929;51.906;7.674;2023-10-09T07:37:03;15.00;99.90
11744;DHT22;5929;51.906;7.674;2023-10-09T07:39:32;15.00;99.90
11744;DHT22;5929;51.906;7.674;2023-10-09T07:42:04;15.00;99.90
11744;DHT22;5929;51.906;7.674;2023-10-09T07:44:45;15.00;99.90
11744;DHT22;5929;51.906;7.674;2023-10-09T07:47:18;15.00;99.90
11744;DHT22;5929;51.906;7.674;2023-10-09T07:50:11;15.10;99.90
11744;DHT22;5929;51.906;7.674;2023-10-09T07:52:42;15.10;99.90
11744;DHT22;5929;51.906;7.674;2023-10-09T07:55:11;15.10;99.90
11744;DHT22;5929;51.906;7.674;2023-10-09T07:57:51;15.10;99.90
11744;DHT22;5929;51.906;7.674;2023-10-09T08:00:18;15.10;99.90
11744;DHT22;5929;51.906;7.674;2023-10-09T08:03:23;15.20;99.90
11744;DHT22;5929;51.906;7.674;2023-10-09T08:05:50;15.20;99.90
11744;DHT22;5929;51.906;7.674;2023-10-09T08:08:19;15.20;99.90
11744;DHT22;5929;51.906;7.674;2023-10-09T08:11:01;15.30;99.90
11744;DHT22;5929;51.906;7.674;2023-10-09T08:13:45;15.30;99.90
11744;DHT22;5929;51.906;7.674;2023-10-09T08:16:26;15.30;99.90
11744;DHT22;5929;51.906;7.674;2023-10-09T08:19:03;15.30;99.90
11744;DHT22;5929;51.906;7.674;2023-10-09T08:21:51;15.30;99.90
11744;DHT22;5929;51.906;7.674;2023-10-09T08:24:42;15.40;99.90
11744;DHT22;5929;51.906;7.674;2023-10-09T08:27:16;15.40;99.90
11744;DHT22;5929;51.906;7.674;2023-10-09T08:30:14;15.40;99.90
11744;DHT22;5929;51.906;7.674;2023-10-09T08:32:54;15.40;99.90
11744;DHT22;5929;51.906;7.674;2023-10-09T08:35:28;15.30;99.90
11744;DHT22;5929;51.906;7.674;2023-10-09T08:37:55;15.40;99.90
11744;DHT22;5929;51.906;7.674;2023-10-09T08:40:31;15.40;99.90
11744;DHT22;5929;51.906;7.674;2023-10-09T08:43:08;15.50;99.90
11744;DHT22;5929;51.906;7.674;2023-10-09T08:45:38;15.50;99.90
11744;DHT22;5929;51.906;7.674;2023-10-09T08:48:08;15.50;99.90
11744;DHT22;5929;51.906;7.674;2023-10-09T08:50:41;15.40;99.90
11744;DHT22;5929;51.906;7.674;2023-10-09T08:53:09;15.40;99.90
11744;DHT22;5929;51.906;7.674;2023-10-09T08:55:37;15.30;99.90
11744;DHT22;5929;51.906;7.674;2023-10-09T08:58:05;15.30;99.90
11744;DHT22;5929;51.906;7.674;2023-10-09T09:00:44;15.40;99.90
11744;DHT22;5929;51.906;7.674;2023-10-09T09:03:12;15.40;99.90
11744;DHT22;5929;51.906;7.674;2023-10-09T09:05:41;15.40;99.90
11744;DHT22;5929;51.906;7.674;2023-10-09T09:08:21;15.30;99.90
11744;DHT22;5929;51.906;7.674;2023-10-09T09:10:56;15.30;99.90
11744;DHT22;5929;51.906;7.674;2023-10-09T09:13:26;15.40;99.90
11744;DHT22;5929;51.906;7.674;2023-10-09T09:15:57;15.40;99.90
11744;DHT22;5929;51.906;7.674;2023-10-09T09:18:24;15.40;99.90
11744;DHT22;5929;51.906;7.674;2023-10-09T09:20:57;15.30;99.90
11744;DHT22;5929;51.906;7.674;2023-10-09T09:23:24;15.40;99.90
11744;DHT22;5929;51.906;7.674;2023-10-09T09:25:52;15.40;99.90
11744;DHT22;5929;51.906;7.674;2023-10-09T09:28:24;15.50;99.90
11744;DHT22;5929;51.906;7.674;2023-10-09T09:31:07;15.60;99.90
11744;DHT22;5929;51.906;7.674;2023-10-09T09:33:38;15.60;99.90
11744;DHT22;5929;51.906;7.674;2023-10-09T09:36:06;15.60;99.90
11744;DHT22;5929;51.906;7.674;2023-10-09T09:38:38;15.60;99.90
11744;DHT22;5929;51.906;7.674;2023-10-09T09:41:13;15.70;99.90
11744;DHT22;5929;51.906;7.674;2023-10-09T09:43:52;15.70;99.90
11744;DHT22;5929;51.906;7.674;2023-10-09T09:46:22;15.80;99.90
11744;DHT22;5929;51.906;7.674;2023-10-09T09:49:00;15.80;99.90
11744;DHT22;5929;51.906;7.674;2023-10-09T09:51:29;15.90;99.90
11744;DHT22;5929;51.906;7.674;2023-10-09T09:53:56;15.90;99.90
11744;DHT22;5929;51.906;7.674;2023-10-09T09:56:24;16.00;99.90
11744;DHT22;5929;51.906;7.674;2023-10-09T09:58:52;16.20;99.90
11744;DHT22;5929;51.906;7.674;2023-10-09T10:01:28;16.20;99.90
11744;DHT22;5929;51.906;7.674;2023-10-09T10:03:59;16.20;99.90
11744;DHT22;5929;51.906;7.674;2023-10-09T10:06:33;16.30;99.90
11744;DHT22;5929;51.906;7.674;2023-10-09T10:09:01;16.40;99.90
11744;DHT22;5929;51.906;7.674;2023-10-09T10:11:42;16.40;99.90
11744;DHT22;5929;51.906;7.674;2023-10-09T10:14:11;16.50;99.90
11744;DHT22;5929;51.906;7.674;2023-10-09T10:17:04;16.50;99.90
11744;DHT22;5929;51.906;7.674;2023-10-09T10:20:04;16.60;99.90
11744;DHT22;5929;51.906;7.674;2023-10-09T10:22:45;16.70;99.90
11744;DHT22;5929;51.906;7.674;2023-10-09T10:25:34;16.70;99.90
11744;DHT22;5929;51.906;7.674;2023-10-09T10:28:19;16.70;99.90
11744;DHT22;5929;51.906;7.674;2023-10-09T10:30:54;16.70;99.90
11744;DHT22;5929;51.906;7.674;2023-10-09T10:33:24;16.80;99.90
11744;DHT22;5929;51.906;7.674;2023-10-09T10:35:53;16.80;99.90
11744;DHT22;5929;51.906;7.674;2023-10-09T10:38:26;16.80;99.90
11744;DHT22;5929;51.906;7.674;2023-10-09T10:41:11;16.90;99.90
11744;DHT22;5929;51.906;7.674;2023-10-09T10:43:40;16.90;99.90
11744;DHT22;5929;51.906;7.674;2023-10-09T10:46:25;17.00;99.90
11744;DHT22;5929;51.906;7.674;2023-10-09T10:49:02;17.10;99.90
11744;DHT22;5929;51.906;7.674;2023-10-09T10:51:41;17.10;99.90
11744;DHT22;5929;51.906;7.674;2023-10-09T10:54:21;17.10;99.90
11744;DHT22;5929;51.906;7.674;2023-10-09T10:57:13;17.20;99.90
11744;DHT22;5929;51.906;7.674;2023-10-09T10:59:45;17.30;99.90
11744;DHT22;5929;51.906;7.674;2023-10-09T11:02:16;17.30;99.90
11744;DHT22;5929;51.906;7.674;2023-10-09T11:04:54;17.40;99.90
11744;DHT22;5929;51.906;7.674;2023-10-09T11:07:39;17.40;99.90
11744;DHT22;5929;51.906;7.674;2023-10-09T11:10:07;17.40;99.90
11744;DHT22;5929;51.906;7.674;2023-10-09T11:12:45;17.40;99.90
11744;DHT22;5929;51.906;7.674;2023-10-09T11:15:38;17.50;99.90
11744;DHT22;5929;51.906;7.674;2023-10-09T11:18:11;17.50;99.90
11744;DHT22;5929;51.906;7.674;2023-10-09T11:20:49;17.50;99.90
11744;DHT22;5929;51.906;7.674;2023-10-09T11:23:41;17.60;99.90
11744;DHT22;5929;51.906;7.674;2023-10-09T11:26:19;17.60;99.90
11744;DHT22;5929;51.906;7.674;2023-10-09T11:29:09;17.60;99.90
11744;DHT22;5929;51.906;7.674;2023-10-09T11:31:56;17.60;99.90
11744;DHT22;5929;51.906;7.674;2023-10-09T11:34:23;17.60;99.90
11744;DHT22;5929;51.906;7.674;2023-10-09T11:36:59;17.70;99.90
11744;DHT22;5929;51.906;7.674;2023-10-09T11:39:27;17.70;99.90
11744;DHT22;5929;51.906;7.674;2023-10-09T11:42:18;17.70;99.90
11744;DHT22;5929;51.906;7.674;2023-10-09T11:45:01;17.70;99.90
11744;DHT22;5929;51.906;7.674;2023-10-09T11:47:34;17.70;99.90
11744;DHT22;5929;51.906;7.674;2023-10-09T11:50:01;17.70;99.90
11744;DHT22;5929;51.906;7.674;2023-10-09T11:52:56;17.70;99.90
11744;DHT22;5929;51.906;7.674;2023-10-09T11:55:35;17.70;99.90
11744;DHT22;5929;51.906;7.674;2023-10-09T11:58:01;17.70;99.90
11744;DHT22;5929;51.906;7.674;2023-10-09T12:00:30;17.70;99.90
11744;DHT22;5929;51.906;7.674;2023-10-09T12:03:08;17.80;99.90
11744;DHT22;5929;51.906;7.674;2023-10-09T12:05:35;17.80;99.90
11744;DHT22;5929;51.906;7.674;2023-10-09T12:08:04;17.80;99.90
11744;DHT22;5929;51.906;7.674;2023-10-09T12:10:34;17.80;99.90
11744;DHT22;5929;51.906;7.674;2023-10-09T12:13:04;17.90;99.90
11744;DHT22;5929;51.906;7.674;2023-10-09T12:15:31;17.90;99.90
11744;DHT22;5929;51.906;7.674;2023-10-09T12:18:04;18.00;99.90
11744;DHT22;5929;51.906;7.674;2023-10-09T12:20:32;18.10;99.90
11744;DHT22;5929;51.906;7.674;2023-10-09T12:23:03;18.10;99.90
11744;DHT22;5929;51.906;7.674;2023-10-09T12:25:31;18.20;99.90
11744;DHT22;5929;51.906;7.674;2023-10-09T12:27:58;18.20;99.90
11744;DHT22;5929;51.906;7.674;2023-10-09T12:30:27;18.20;99.90
11744;DHT22;5929;51.906;7.674;2023-10-09T12:32:54;18.20;99.90
11744;DHT22;5929;51.906;7.674;2023-10-09T12:35:23;18.20;99.90
11744;DHT22;5929;51.906;7.674;2023-10-09T12:37:51;18.20;99.90
11744;DHT22;5929;51.906;7.674;2023-10-09T12:40:19;18.20;99.90
11744;DHT22;5929;51.906;7.674;2023-10-09T12:42:51;18.10;99.90
11744;DHT22;5929;51.906;7.674;2023-10-09T12:45:18;18.10;99.90
11744;DHT22;5929;51.906;7.674;2023-10-09T12:47:52;18.20;99.90
11744;DHT22;5929;51.906;7.674;2023-10-09T12:50:18;18.20;99.90
11744;DHT22;5929;51.906;7.674;2023-10-09T12:52:54;18.20;99.90
11744;DHT22;5929;51.906;7.674;2023-10-09T12:55:24;18.20;99.90
11744;DHT22;5929;51.906;7.674;2023-10-09T12:58:00;18.20;99.90
11744;DHT22;5929;51.906;7.674;2023-10-09T13:00:32;18.20;99.90
11744;DHT22;5929;51.906;7.674;2023-10-09T13:03:04;18.30;99.90
11744;DHT22;5929;51.906;7.674;2023-10-09T13:05:45;18.30;99.90
11744;DHT22;5929;51.906;7.674;2023-10-09T13:08:21;18.40;99.90
11744;DHT22;5929;51.906;7.674;2023-10-09T13:10:52;18.40;99.90
11744;DHT22;5929;51.906;7.674;2023-10-09T13:13:26;18.50;99.90
11744;DHT22;5929;51.906;7.674;2023-10-09T13:16:06;18.60;99.90
11744;DHT22;5929;51.906;7.674;2023-10-09T13:18:33;18.60;99.90
11744;DHT22;5929;51.906;7.674;2023-10-09T13:21:00;18.60;99.90
11744;DHT22;5929;51.906;7.674;2023-10-09T13:23:29;18.60;99.90
11744;DHT22;5929;51.906;7.674;2023-10-09T13:26:06;18.60;99.90
11744;DHT22;5929;51.906;7.674;2023-10-09T13:28:46;18.60;99.90
11744;DHT22;5929;51.906;7.674;2023-10-09T13:31:13;18.60;99.90
11744;DHT22;5929;51.906;7.674;2023-10-09T13:33:41;18.60;99.90
11744;DHT22;5929;51.906;7.674;2023-10-09T13:36:09;18.70;99.90
11744;DHT22;5929;51.906;7.674;2023-10-09T13:38:43;18.70;99.90
11744;DHT22;5929;51.906;7.674;2023-10-09T13:41:11;18.70;99.90
11744;DHT22;5929;51.906;7.674;2023-10-09T13:43:40;18.70;99.90
11744;DHT22;5929;51.906;7.674;2023-10-09T13:46:08;18.70;99.90
11744;DHT22;5929;51.906;7.674;2023-10-09T13:48:37;18.60;99.90
11744;DHT22;5929;51.906;7.674;2023-10-09T13:51:08;18.70;99.90
11744;DHT22;5929;51.906;7.674;2023-10-09T13:53:40;18.70;99.90
11744;DHT22;5929;51.906;7.674;2023-10-09T13:56:12;18.70;99.90
11744;DHT22;5929;51.906;7.674;2023-10-09T13:58:44;18.60;99.90
11744;DHT22;5929;51.906;7.674;2023-10-09T14:01:11;18.60;99.90
11744;DHT22;5929;51.906;7.674;2023-10-09T14:03:47;18.60;99.90
11744;DHT22;5929;51.906;7.674;2023-10-09T14:06:16;18.70;99.90
11744;DHT22;5929;51.906;7.674;2023-10-09T14:08:45;18.60;99.90
11744;DHT22;5929;51.906;7.674;2023-10-09T14:11:13;18.60;99.90
11744;DHT22;5929;51.906;7.674;2023-10-09T14:13:40;18.60;99.90
11744;DHT22;5929;51.906;7.674;2023-10-09T14:16:07;18.60;99.90
11744;DHT22;5929;51.906;7.674;2023-10-09T14:18:49;18.60;99.90
11744;DHT22;5929;51.906;7.674;2023-10-09T14:21:19;18.60;99.90
11744;DHT22;5929;51.906;7.674;2023-10-09T14:23:47;18.60;99.90
11744;DHT22;5929;51.906;7.674;2023-10-09T14:26:15;18.50;99.90
11744;DHT22;5929;51.906;7.674;2023-10-09T14:28:44;18.50;99.90
11744;DHT22;5929;51.906;7.674;2023-10-09T14:31:11;18.50;99.90
11744;DHT22;5929;51.906;7.674;2023-10-09T14:33:40;18.50;99.90
11744;DHT22;5929;51.906;7.674;2023-10-09T14:36:11;18.50;99.90
11744;DHT22;5929;51.906;7.674;2023-10-09T14:38:40;18.50;99.90
11744;DHT22;5929;51.906;7.674;2023-10-09T14:41:08;18.60;99.90
11744;DHT22;5929;51.906;7.674;2023-10-09T14:43:38;18.50;99.90
11744;DHT22;5929;51.906;7.674;2023-10-09T14:46:05;18.60;99.90
11744;DHT22;5929;51.906;7.674;2023-10-09T14:48:38;18.50;99.90
11744;DHT22;5929;51.906;7.674;2023-10-09T14:51:06;18.50;99.90
11744;DHT22;5929;51.906;7.674;2023-10-09T14:53:36;18.40;99.90
11744;DHT22;5929;51.906;7.674;2023-10-09T14:56:03;18.40;99.90
11744;DHT22;5929;51.906;7.674;2023-10-09T14:58:34;18.50;99.90
11744;DHT22;5929;51.906;7.674;2023-10-09T15:01:08;18.50;99.90
11744;DHT22;5929;51.906;7.674;2023-10-09T15:03:40;18.50;99.90
11744;DHT22;5929;51.906;7.674;2023-10-09T15:06:07;18.40;99.90
11744;DHT22;5929;51.906;7.674;2023-10-09T15:08:36;18.40;99.90
11744;DHT22;5929;51.906;7.674;2023-10-09T15:11:03;18.40;99.90
11744;DHT22;5929;51.906;7.674;2023-10-09T15:13:31;18.40;99.90
11744;DHT22;5929;51.906;7.674;2023-10-09T15:15:58;18.40;99.90
11744;DHT22;5929;51.906;7.674;2023-10-09T15:18:31;18.40;99.90
11744;DHT22;5929;51.906;7.674;2023-10-09T15:20:59;18.40;99.90
11744;DHT22;5929;51.906;7.674;2023-10-09T15:23:26;18.30;99.90
11744;DHT22;5929;51.906;7.674;2023-10-09T15:25:53;18.40;99.90
11744;DHT22;5929;51.906;7.674;2023-10-09T15:28:21;18.40;99.90
11744;DHT22;5929;51.906;7.674;2023-10-09T15:30:49;18.40;99.90
11744;DHT22;5929;51.906;7.674;2023-10-09T15:33:16;18.40;99.90
11744;DHT22;5929;51.906;7.674;2023-10-09T15:35:45;18.40;99.90
11744;DHT22;5929;51.906;7.674;2023-10-09T15:38:13;18.40;99.90
11744;DHT22;5929;51.906;7.674;2023-10-09T15:40:41;18.30;99.90
11744;DHT22;5929;51.906;7.674;2023-10-09T15:43:09;18.40;99.90
11744;DHT22;5929;51.906;7.674;2023-10-09T15:45:41;18.40;99.90
11744;DHT22;5929;51.906;7.674;2023-10-09T15:48:10;18.40;99.90
11744;DHT22;5929;51.906;7.674;2023-10-09T15:50:38;18.40;99.90
11744;DHT22;5929;51.906;7.674;2023-10-09T15:53:06;18.40;99.90
11744;DHT22;5929;51.906;7.674;2023-10-09T15:55:35;18.50;99.90
11744;DHT22;5929;51.906;7.674;2023-10-09T15:58:03;18.50;99.90
11744;DHT22;5929;51.906;7.674;2023-10-09T16:00:36;18.50;99.90
11744;DHT22;5929;51.906;7.674;2023-10-09T16:03:05;18.50;99.90
11744;DHT22;5929;51.906;7.674;2023-10-09T16:05:35;18.50;99.90
11744;DHT22;5929;51.906;7.674;2023-10-09T16:08:02;18.40;99.90
11744;DHT22;5929;51.906;7.674;2023-10-09T16:10:31;18.40;99.90
11744;DHT22;5929;51.906;7.674;2023-10-09T16:13:00;18.40;99.90
11744;DHT22;5929;51.906;7.674;2023-10-09T16:15:27;18.40;99.90
11744;DHT22;5929;51.906;7.674;2023-10-09T16:17:54;18.40;99.90
11744;DHT22;5929;51.906;7.674;2023-10-09T16:20:29;18.40;99.90
11744;DHT22;5929;51.906;7.674;2023-10-09T16:22:57;18.40;99.90
11744;DHT22;5929;51.906;7.674;2023-10-09T16:25:25;18.40;99.90
11744;DHT22;5929;51.906;7.674;2023-10-09T16:27:53;18.40;99.90